Time;durP1;ratioP1;P1;durP2;ratioP2;P2;SDS_P1;SDS_P2;PMS_P1;PMS_P2;Temp;Humidity;BMP_temperature;BMP_pressure;BME280_temperature;BME280_humidity;BME280_pressure;Samples;Min_cycle;Max_cycle;Signal;HPM_P1;HPM_P2
2023/02/20 00:00:59;;;;;;;;;;;;;;;12.35;45.05;101384.50;4916672;28;122796;-67
2023/02/20 00:03:25;;;;;;;;;;;;;;;12.36;45.10;101386.13;4899636;28;130984;-67
2023/02/20 00:05:50;;;;;;;;;;;;;;;12.34;45.05;101385.56;4900271;28;127852;-66
2023/02/20 00:08:16;;;;;;;;;;;;;;;12.32;45.12;101385.00;4900524;28;98211;-67
2023/02/20 00:10:42;;;;;;;;;;;;;;;12.34;45.08;101383.69;4896099;28;104110;-68
2023/02/20 00:13:08;;;;;;;;;;;;;;;12.34;45.08;101383.69;4914067;28;128996;-68
2023/02/20 00:15:34;;;;;;;;;;;;;;;12.33;45.09;101383.94;4912083;28;117374;-68
2023/02/20 00:18:00;;;;;;;;;;;;;;;12.34;44.97;101372.88;4900044;28;127600;-68
2023/02/20 00:20:26;;;;;;;;;;;;;;;12.34;45.26;101378.28;4914186;28;121669;-68
2023/02/20 00:22:52;;;;;;;;;;;;;;;12.34;45.03;101375.59;4899647;28;99793;-68
2023/02/20 00:25:19;;;;;;;;;;;;;;;12.35;45.23;101361.00;4901140;28;100026;-68
2023/02/20 00:27:45;;;;;;;;;;;;;;;12.36;44.97;101364.50;4913457;28;116981;-68
2023/02/20 00:30:18;;;;;;;;;;;;;;;12.36;45.18;101359.91;4899035;28;97874;-69
2023/02/20 00:32:46;;;;;;;;;;;;;;;12.36;45.18;101353.69;4897669;28;108298;-67
2023/02/20 00:35:12;;;;;;;;;;;;;;;12.36;44.97;101353.69;4899937;28;98128;-68
2023/02/20 00:37:38;;;;;;;;;;;;;;;12.38;44.97;101332.59;4893969;28;98713;-67
2023/02/20 00:40:05;;;;;;;;;;;;;;;12.38;45.10;101327.19;4914227;28;97924;-66
2023/02/20 00:42:31;;;;;;;;;;;;;;;12.37;45.27;101329.09;4898815;28;101806;-66
2023/02/20 00:44:57;;;;;;;;;;;;;;;12.37;45.06;101329.09;4917656;28;99195;-67
2023/02/20 00:47:22;;;;;;;;;;;;;;;12.37;45.15;101330.97;4912315;28;98267;-68
2023/02/20 00:49:48;;;;;;;;;;;;;;;12.38;44.93;101328.03;4896005;28;123491;-67
2023/02/20 00:52:14;;;;;;;;;;;;;;;12.37;45.13;101323.69;4915204;28;128183;-67
2023/02/20 00:54:40;;;;;;;;;;;;;;;12.38;45.03;101327.19;4915334;28;126635;-67
2023/02/20 00:57:06;;;;;;;;;;;;;;;12.38;45.04;101321.78;4899448;28;128808;-67
2023/02/20 00:59:32;;;;;;;;;;;;;;;12.37;45.02;101315.56;4896608;28;122947;-67
2023/02/20 01:01:58;;;;;;;;;;;;;;;12.35;45.13;101320.44;4895571;28;127087;-66
2023/02/20 01:04:24;;;;;;;;;;;;;;;12.37;45.04;101328.28;4904235;28;99809;-67
2023/02/20 01:06:50;;;;;;;;;;;;;;;12.36;45.06;101321.25;4917381;28;112808;-68
2023/02/20 01:09:16;;;;;;;;;;;;;;;12.36;45.23;101315.84;4901418;28;123374;-67
2023/02/20 01:11:42;;;;;;;;;;;;;;;12.36;44.96;101310.44;4916766;28;127338;-67
2023/02/20 01:14:08;;;;;;;;;;;;;;;12.35;45.03;101306.91;4901881;28;98590;-68
2023/02/20 01:16:34;;;;;;;;;;;;;;;12.35;44.90;101309.63;4934030;28;126754;-67
2023/02/20 01:19:00;;;;;;;;;;;;;;;12.33;45.07;101306.34;4919118;28;121739;-67
2023/02/20 01:21:26;;;;;;;;;;;;;;;12.32;45.01;101312.84;4901930;28;115992;-67
2023/02/20 01:23:52;;;;;;;;;;;;;;;12.31;45.10;101305.81;4900381;28;127432;-67
2023/02/20 01:26:18;;;;;;;;;;;;;;;12.31;45.04;101305.00;4917245;28;119878;-68
2023/02/20 01:28:49;;;;;;;;;;;;;;;12.29;45.15;101302.53;4916826;28;121703;-67
2023/02/20 01:31:15;;;;;;;;;;;;;;;12.26;44.98;101292.22;4900412;28;98132;-67
2023/02/20 01:33:42;;;;;;;;;;;;;;;12.24;45.00;101288.97;4902785;28;128231;-67
2023/02/20 01:36:08;;;;;;;;;;;;;;;12.23;44.98;101287.34;4915491;28;97861;-67
2023/02/20 01:38:34;;;;;;;;;;;;;;;12.21;45.21;101297.59;4901163;28;99476;-66
2023/02/20 01:41:00;;;;;;;;;;;;;;;12.18;45.10;101301.66;4901730;28;99709;-67
2023/02/20 01:43:26;;;;;;;;;;;;;;;12.17;45.16;101304.59;4915299;28;122435;-66
2023/02/20 01:45:52;;;;;;;;;;;;;;;12.16;45.11;101301.09;4913579;28;125872;-66
2023/02/20 01:48:20;;;;;;;;;;;;;;;12.15;45.08;101285.13;4919227;28;97911;-67
2023/02/20 01:50:46;;;;;;;;;;;;;;;12.13;45.06;101285.38;4904404;28;100080;-67
2023/02/20 01:53:14;;;;;;;;;;;;;;;12.10;45.23;101277.78;4916252;28;124295;-67
2023/02/20 01:55:45;;;;;;;;;;;;;;;12.08;45.24;101266.44;4915493;28;121774;-68
2023/02/20 01:58:26;;;;;;;;;;;;;;;12.08;45.05;101263.72;4932625;28;98546;-66
2023/02/20 02:00:53;;;;;;;;;;;;;;;12.06;45.19;101259.63;4918095;28;99003;-67
2023/02/20 02:03:24;;;;;;;;;;;;;;;12.03;45.14;101255.59;4899164;28;116176;-67
2023/02/20 02:05:52;;;;;;;;;;;;;;;12.01;45.39;101266.63;4898273;28;125428;-67
2023/02/20 02:08:20;;;;;;;;;;;;;;;12.00;45.20;101264.19;4918122;28;98058;-67
2023/02/20 02:11:02;;;;;;;;;;;;;;;11.98;45.26;101272.53;4899083;28;122657;-67
2023/02/20 02:13:29;;;;;;;;;;;;;;;11.99;45.06;101254.47;4930683;28;98341;-67
2023/02/20 02:16:21;;;;;;;;;;;;;;;11.97;45.15;101240.38;4918958;28;116533;-68
2023/02/20 02:19:06;;;;;;;;;;;;;;;11.96;45.08;101239.56;4934380;28;116922;-66
2023/02/20 02:21:37;;;;;;;;;;;;;;;11.96;45.17;101236.88;4930245;28;98163;-67
2023/02/20 02:24:27;;;;;;;;;;;;;;;11.95;45.08;101248.75;4929876;28;98875;-67
2023/02/20 02:27:02;;;;;;;;;;;;;;;11.96;45.18;101249.56;4933887;28;98122;-68
2023/02/20 02:29:31;;;;;;;;;;;;;;;11.96;45.33;101247.69;4917292;28;97925;-68
2023/02/20 02:32:14;;;;;;;;;;;;;;;11.96;45.16;101241.47;4916854;28;99509;-67
2023/02/20 02:35:02;;;;;;;;;;;;;;;11.96;45.23;101234.16;4931918;28;120195;-66
2023/02/20 02:37:33;;;;;;;;;;;;;;;11.97;45.15;101221.47;4917113;28;98777;-67
2023/02/20 02:40:07;;;;;;;;;;;;;;;11.97;45.01;101206.06;4914994;28;115659;-66
2023/02/20 02:42:36;;;;;;;;;;;;;;;11.96;45.10;101209.84;4911849;28;116232;-67
2023/02/20 02:45:20;;;;;;;;;;;;;;;11.97;45.22;101195.25;4932924;28;98175;-67
2023/02/20 02:47:59;;;;;;;;;;;;;;;11.98;44.97;101190.66;4926648;28;98158;-67
2023/02/20 02:50:31;;;;;;;;;;;;;;;11.98;45.21;101187.97;4911349;28;113799;-67
2023/02/20 02:52:57;;;;;;;;;;;;;;;11.98;44.95;101185.28;4896767;28;99078;-67
2023/02/20 02:55:27;;;;;;;;;;;;;;;11.98;45.14;101179.88;4900512;28;98184;-67
2023/02/20 02:57:54;;;;;;;;;;;;;;;11.98;45.20;101185.28;4916232;28;97979;-67
2023/02/20 03:00:31;;;;;;;;;;;;;;;11.99;44.97;101190.44;4915364;28;98097;-69
2023/02/20 03:03:16;;;;;;;;;;;;;;;11.99;44.84;101190.44;4913352;28;98447;-68
2023/02/20 03:05:49;;;;;;;;;;;;;;;11.98;45.02;101202.28;4913271;28;99939;-68
2023/02/20 03:08:35;;;;;;;;;;;;;;;12.01;45.01;101200.97;4915787;28;98040;-67
2023/02/20 03:11:08;;;;;;;;;;;;;;;12.01;44.99;101195.56;4917343;28;98042;-67
2023/02/20 03:16:49;;;;;;;;;;;;;;;12.02;45.14;101178.28;4912914;28;99127;-67
2023/02/20 03:19:18;;;;;;;;;;;;;;;12.01;45.05;101182.06;4885214;28;124810;-67
2023/02/20 03:21:45;;;;;;;;;;;;;;;11.98;45.10;101175.28;4914744;28;105772;-67
2023/02/20 03:24:11;;;;;;;;;;;;;;;11.97;44.92;101176.34;4915877;28;99135;-67
2023/02/20 03:26:37;;;;;;;;;;;;;;;11.95;44.99;101162.31;4908340;28;120869;-67
2023/02/20 03:29:09;;;;;;;;;;;;;;;11.95;45.00;101165.00;4913272;28;126686;-67
2023/02/20 03:31:41;;;;;;;;;;;;;;;11.94;44.81;101163.34;4911523;28;98117;-67
2023/02/20 03:45:16;;;;;;;;;;;;;;;11.92;45.12;101179.03;4912891;28;97989;-67
2023/02/20 03:47:43;;;;;;;;;;;;;;;11.92;44.96;101176.31;4911332;28;127804;-67
2023/02/20 03:50:09;;;;;;;;;;;;;;;11.92;45.14;101170.13;4916233;28;98058;-67
2023/02/20 03:52:35;;;;;;;;;;;;;;;11.91;45.18;101163.09;4917204;28;123248;-68
2023/02/20 03:55:02;;;;;;;;;;;;;;;11.92;45.12;101168.22;4900164;28;98587;-67
2023/02/20 03:57:30;;;;;;;;;;;;;;;11.93;45.04;101156.34;4916326;28;98038;-67
2023/02/20 04:00:19;;;;;;;;;;;;;;;11.93;44.97;101144.72;4897582;28;112013;-68
2023/02/20 04:02:46;;;;;;;;;;;;;;;11.94;44.98;101141.75;4917626;28;98144;-66
2023/02/20 04:05:14;;;;;;;;;;;;;;;11.96;44.95;101136.91;4931890;28;98193;-68
2023/02/20 04:07:54;;;;;;;;;;;;;;;11.96;45.08;101138.81;4897864;28;118222;-68
2023/02/20 04:10:22;;;;;;;;;;;;;;;11.97;45.00;101129.63;4902098;28;116658;-66
2023/02/20 04:12:48;;;;;;;;;;;;;;;11.98;44.66;101142.03;4897513;28;111427;-66
2023/02/20 04:15:14;;;;;;;;;;;;;;;11.98;45.05;101137.44;4900515;28;128254;-66
2023/02/20 04:17:51;;;;;;;;;;;;;;;11.98;44.83;101132.03;4913877;28;107186;-67
2023/02/20 04:20:17;;;;;;;;;;;;;;;11.97;44.91;101114.22;4914473;28;98030;-66
2023/02/20 04:22:44;;;;;;;;;;;;;;;11.99;45.07;101128.28;4899414;28;123180;-67
2023/02/20 04:25:38;;;;;;;;;;;;;;;11.99;44.83;101119.38;4899753;28;112277;-66
2023/02/20 04:28:04;;;;;;;;;;;;;;;12.00;44.98;101110.19;4929497;28;105067;-66
2023/02/20 04:30:30;;;;;;;;;;;;;;;11.99;44.84;101119.38;4901364;28;97990;-66
2023/02/20 04:32:56;;;;;;;;;;;;;;;12.00;45.11;101123.69;4898777;28;97985;-67
2023/02/20 04:35:22;;;;;;;;;;;;;;;12.02;45.15;101133.19;4894193;28;130105;-67
2023/02/20 04:37:48;;;;;;;;;;;;;;;12.03;45.01;101139.38;4920034;28;99728;-67
2023/02/20 04:40:15;;;;;;;;;;;;;;;12.03;45.14;101142.09;4901621;28;128298;-66
2023/02/20 04:42:41;;;;;;;;;;;;;;;12.02;45.11;101132.34;4920902;28;98326;-67
2023/02/20 04:45:07;;;;;;;;;;;;;;;12.04;44.93;101144.53;4902353;28;130264;-67
2023/02/20 04:47:33;;;;;;;;;;;;;;;12.05;45.01;101137.22;4907732;28;100461;-67
2023/02/20 04:49:59;;;;;;;;;;;;;;;12.05;45.15;101137.22;4903787;28;126981;-67
2023/02/20 04:52:25;;;;;;;;;;;;;;;12.06;45.16;101144.25;4899656;28;121373;-68
2023/02/20 04:54:51;;;;;;;;;;;;;;;12.08;45.22;101133.19;4913857;28;98368;-68
2023/02/20 04:57:17;;;;;;;;;;;;;;;12.09;45.02;101124.00;4901815;28;127375;-67
2023/02/20 04:59:43;;;;;;;;;;;;;;;12.09;44.96;101121.31;4920259;28;117661;-68
2023/02/20 05:02:09;;;;;;;;;;;;;;;12.09;45.20;101114.00;4901103;28;119376;-67
2023/02/20 05:04:35;;;;;;;;;;;;;;;12.10;45.15;101104.00;4919002;28;126971;-67
2023/02/20 05:07:01;;;;;;;;;;;;;;;12.11;45.16;101089.44;4885265;28;128925;-68
2023/02/20 05:09:27;;;;;;;;;;;;;;;12.12;44.93;101096.47;4877267;28;127878;-67
2023/02/20 05:11:53;;;;;;;;;;;;;;;12.12;44.91;101094.56;4900216;28;98003;-67
2023/02/20 05:14:19;;;;;;;;;;;;;;;12.14;45.10;101091.59;4899219;28;128644;-67
2023/02/20 05:16:45;;;;;;;;;;;;;;;12.14;45.10;101095.13;4901798;28;99045;-67
2023/02/20 05:19:11;;;;;;;;;;;;;;;12.15;44.99;101096.75;4907490;28;99333;-68
2023/02/20 05:24:24;;;;;;;;;;;;;;;12.16;45.15;101079.47;4901787;28;98154;-68
2023/02/20 05:26:51;;;;;;;;;;;;;;;12.18;44.96;101081.88;4900623;28;124355;-68
2023/02/20 05:29:17;;;;;;;;;;;;;;;12.18;45.19;101076.50;4899336;28;98025;-68
2023/02/20 05:31:43;;;;;;;;;;;;;;;12.18;45.21;101074.63;4913624;28;124078;-67
2023/02/20 05:34:09;;;;;;;;;;;;;;;12.20;45.06;101066.25;4900859;28;126857;-68
2023/02/20 05:36:35;;;;;;;;;;;;;;;12.20;45.18;101069.75;4901341;28;120542;-67
2023/02/20 05:39:01;;;;;;;;;;;;;;;12.20;45.06;101056.25;4884771;28;128088;-67
2023/02/20 05:41:27;;;;;;;;;;;;;;;12.21;44.96;101051.63;4901507;28;98083;-68
2023/02/20 05:43:56;;;;;;;;;;;;;;;12.21;45.06;101049.75;4916055;28;127857;-67
2023/02/20 05:46:23;;;;;;;;;;;;;;;12.21;45.13;101054.34;4912340;28;98670;-67
2023/02/20 05:48:50;;;;;;;;;;;;;;;12.21;45.28;101049.75;4911238;28;98135;-68
2023/02/20 05:51:27;;;;;;;;;;;;;;;12.22;45.08;101042.44;4897791;28;100866;-67
2023/02/20 05:53:52;;;;;;;;;;;;;;;12.21;45.04;101044.34;4931120;28;98290;-67
2023/02/20 05:56:18;;;;;;;;;;;;;;;12.22;45.06;101040.59;4899930;28;120538;-67
2023/02/20 05:58:44;;;;;;;;;;;;;;;12.23;45.19;101044.09;4897783;28;98107;-66
2023/02/20 06:01:21;;;;;;;;;;;;;;;12.22;45.20;101018.13;4896782;28;101173;-68
2023/02/20 06:03:47;;;;;;;;;;;;;;;12.23;45.16;101014.38;4896075;28;116421;-67
2023/02/20 06:06:13;;;;;;;;;;;;;;;12.24;45.08;101002.47;4896601;28;98633;-67
2023/02/20 06:08:39;;;;;;;;;;;;;;;12.24;45.04;101002.47;4910501;28;98510;-67
2023/02/20 06:11:06;;;;;;;;;;;;;;;12.25;44.91;100995.97;4894977;28;98069;-66
2023/02/20 06:13:31;;;;;;;;;;;;;;;12.26;45.03;100994.91;4913035;28;99042;-66
2023/02/20 06:15:57;;;;;;;;;;;;;;;12.27;45.00;100993.84;4899773;28;128396;-67
2023/02/20 06:18:23;;;;;;;;;;;;;;;12.28;45.05;100996.25;4898802;28;126587;-68
2023/02/20 06:20:49;;;;;;;;;;;;;;;12.28;45.08;100990.84;4896193;28;111925;-67
2023/02/20 06:23:15;;;;;;;;;;;;;;;12.31;44.91;100989.53;4902082;28;127371;-66
2023/02/20 06:25:41;;;;;;;;;;;;;;;12.34;45.21;100990.88;4912040;28;128023;-66
2023/02/20 06:28:07;;;;;;;;;;;;;;;12.37;44.96;100984.94;4912907;28;127926;-68
2023/02/20 06:30:33;;;;;;;;;;;;;;;12.39;45.05;100980.91;4898893;28;121278;-67
2023/02/20 06:32:59;;;;;;;;;;;;;;;12.43;45.17;100981.19;4912527;28;111197;-66
2023/02/20 06:35:25;;;;;;;;;;;;;;;12.48;44.81;100978.47;4910499;28;127874;-67
2023/02/20 06:37:51;;;;;;;;;;;;;;;12.53;45.00;100975.78;4898509;28;100451;-67
2023/02/20 06:40:16;;;;;;;;;;;;;;;12.56;44.85;100972.53;4913906;28;121927;-68
2023/02/20 06:42:42;;;;;;;;;;;;;;;12.59;44.87;100990.94;4896586;28;98594;-67
2023/02/20 06:45:10;;;;;;;;;;;;;;;12.64;44.75;100980.13;4899580;28;103282;-68
2023/02/20 06:47:36;;;;;;;;;;;;;;;12.73;45.15;100989.34;4913391;28;99357;-67
2023/02/20 06:50:02;;;;;;;;;;;;;;;12.84;45.00;100987.44;4898311;28;114650;-67
2023/02/20 06:52:28;;;;;;;;;;;;;;;12.96;44.69;100987.16;4909886;28;120076;-67
2023/02/20 06:54:54;;;;;;;;;;;;;;;13.09;44.61;100980.44;4912928;28;127633;-67
2023/02/20 06:57:20;;;;;;;;;;;;;;;13.18;44.55;100974.19;4911754;28;128650;-68
2023/02/20 06:59:48;;;;;;;;;;;;;;;13.27;44.89;100972.56;4898416;28;98071;-68
2023/02/20 07:02:14;;;;;;;;;;;;;;;13.35;44.84;100978.53;4899308;28;99985;-67
2023/02/20 07:04:40;;;;;;;;;;;;;;;13.40;44.47;100975.78;4910247;28;114233;-67
2023/02/20 07:07:06;;;;;;;;;;;;;;;13.44;44.86;100966.88;4913451;28;109349;-68
2023/02/20 07:09:32;;;;;;;;;;;;;;;13.49;44.96;100966.03;4912796;28;120507;-68
2023/02/20 07:11:58;;;;;;;;;;;;;;;13.53;44.66;100961.69;4911278;28;128655;-68
2023/02/20 07:14:24;;;;;;;;;;;;;;;13.57;44.54;100973.59;4896653;28;111659;-67
2023/02/20 07:16:50;;;;;;;;;;;;;;;13.60;44.98;100972.25;4895066;28;127387;-68
2023/02/20 07:19:15;;;;;;;;;;;;;;;13.63;45.00;100982.53;4908135;28;121968;-68
2023/02/20 07:21:41;;;;;;;;;;;;;;;13.68;44.99;100974.41;4894206;28;128782;-67
2023/02/20 07:24:07;;;;;;;;;;;;;;;13.73;44.74;100966.25;4911008;28;98104;-67
2023/02/20 07:26:35;;;;;;;;;;;;;;;13.83;44.64;100976.22;4911922;28;99312;-67
2023/02/20 07:29:02;;;;;;;;;;;;;;;13.90;44.84;100969.41;4911726;28;98332;-68
2023/02/20 07:31:28;;;;;;;;;;;;;;;13.99;44.73;100975.91;4898040;28;98746;-67
2023/02/20 07:33:53;;;;;;;;;;;;;;;14.06;44.79;100972.06;4911415;28;103200;-69
2023/02/20 07:36:19;;;;;;;;;;;;;;;14.14;44.39;100966.88;4894340;28;127969;-67
2023/02/20 07:38:59;;;;;;;;;;;;;;;14.25;44.08;100968.44;4912346;28;99443;-69
2023/02/20 07:41:28;;;;;;;;;;;;;;;14.38;44.35;100977.06;4905671;28;98049;-67
2023/02/20 07:43:54;;;;;;;;;;;;;;;14.37;44.32;100956.44;4928051;28;100101;-67
2023/02/20 07:46:20;;;;;;;;;;;;;;;14.30;44.75;100956.75;4912460;28;115072;-67
2023/02/20 07:48:46;;;;;;;;;;;;;;;14.28;44.75;100960.84;4910512;28;117538;-68
2023/02/20 07:51:12;;;;;;;;;;;;;;;14.23;44.46;100943.53;4897241;28;98197;-68
2023/02/20 07:53:38;;;;;;;;;;;;;;;14.24;44.47;100928.06;4912765;28;98453;-67
2023/02/20 07:56:04;;;;;;;;;;;;;;;14.37;44.66;100935.56;4913247;28;97947;-67
2023/02/20 07:58:30;;;;;;;;;;;;;;;14.59;44.48;100907.25;4894727;28;108275;-67
2023/02/20 08:00:56;;;;;;;;;;;;;;;14.83;43.88;100888.31;4896949;28;98443;-68
2023/02/20 08:03:22;;;;;;;;;;;;;;;15.19;43.61;100908.59;4912885;28;98707;-68
2023/02/20 08:05:48;;;;;;;;;;;;;;;16.02;42.74;100924.78;4893695;28;128230;-67
2023/02/20 08:08:14;;;;;;;;;;;;;;;15.91;43.24;100937.69;4901234;28;112673;-68
2023/02/20 08:10:40;;;;;;;;;;;;;;;15.94;43.31;100931.66;4896985;28;106643;-68
2023/02/20 08:13:06;;;;;;;;;;;;;;;16.00;43.64;100927.78;4898292;28;128004;-68
2023/02/20 08:15:32;;;;;;;;;;;;;;;16.19;43.38;100906.88;4912609;28;124906;-67
2023/02/20 08:17:58;;;;;;;;;;;;;;;16.39;43.21;100905.75;4901490;28;97927;-67
2023/02/20 08:20:24;;;;;;;;;;;;;;;16.69;43.14;100915.31;4902253;28;107170;-68
2023/02/20 08:22:50;;;;;;;;;;;;;;;17.06;42.70;100885.63;4899222;28;98332;-67
2023/02/20 08:25:16;;;;;;;;;;;;;;;17.22;42.91;100880.69;4899677;28;99542;-68
2023/02/20 08:27:43;;;;;;;;;;;;;;;17.28;42.84;100883.00;4916739;28;98743;-69
2023/02/20 08:30:26;;;;;;;;;;;;;;;17.49;42.83;100918.00;4914373;28;118519;-68
2023/02/20 08:32:52;;;;;;;;;;;;;;;17.65;42.88;100939.22;4880153;28;121560;-68
2023/02/20 08:35:18;;;;;;;;;;;;;;;17.53;43.10;100919.84;4912938;28;98419;-68
2023/02/20 08:37:45;;;;;;;;;;;;;;;17.52;43.20;100874.63;4927644;28;114486;-67
2023/02/20 08:40:11;;;;;;;;;;;;;;;17.78;42.99;100879.56;4914341;28;114772;-67
2023/02/20 08:42:37;;;;;;;;;;;;;;;18.06;42.75;100866.69;4933793;28;98741;-67
2023/02/20 08:45:04;;;;;;;;;;;;;;;18.32;42.53;100861.44;4915064;28;109543;-67
2023/02/20 08:47:30;;;;;;;;;;;;;;;18.69;42.39;100868.44;4883113;28;98135;-67
2023/02/20 08:49:56;;;;;;;;;;;;;;;18.89;42.31;100869.84;4915211;28;105000;-68
2023/02/20 08:52:22;;;;;;;;;;;;;;;19.03;42.42;100851.47;4900246;28;100157;-68
2023/02/20 08:54:48;;;;;;;;;;;;;;;19.01;42.57;100859.16;4902268;28;128514;-68
2023/02/20 08:57:14;;;;;;;;;;;;;;;18.97;42.86;100855.44;4899318;28;101557;-70
2023/02/20 08:59:40;;;;;;;;;;;;;;;18.93;42.79;100864.56;4912793;28;100090;-68
2023/02/20 09:02:09;;;;;;;;;;;;;;;18.74;43.05;100854.66;4914362;28;98370;-68
2023/02/20 09:04:35;;;;;;;;;;;;;;;18.51;43.39;100856.59;4897550;28;109787;-68
2023/02/20 09:07:01;;;;;;;;;;;;;;;18.33;43.58;100849.41;4914205;28;98226;-68
2023/02/20 09:09:28;;;;;;;;;;;;;;;18.15;43.81;100853.91;4910810;28;126048;-68
2023/02/20 09:11:54;;;;;;;;;;;;;;;17.98;43.82;100838.22;4900808;28;98469;-68
2023/02/20 09:14:20;;;;;;;;;;;;;;;17.82;44.03;100839.69;4913097;28;109687;-68
2023/02/20 09:16:50;;;;;;;;;;;;;;;17.66;43.91;100828.28;4897770;28;121990;-68
2023/02/20 09:19:16;;;;;;;;;;;;;;;17.54;44.09;100819.81;4899186;28;125009;-68
2023/02/20 09:21:45;;;;;;;;;;;;;;;17.45;44.19;100818.91;4916144;28;99002;-68
2023/02/20 09:24:11;;;;;;;;;;;;;;;17.36;44.10;100813.38;4899823;28;98122;-68
2023/02/20 09:26:37;;;;;;;;;;;;;;;17.28;43.92;100808.63;4881736;28;98142;-68
2023/02/20 09:29:03;;;;;;;;;;;;;;;17.18;44.20;100818.63;4898332;28;128824;-68
2023/02/20 09:31:29;;;;;;;;;;;;;;;17.07;44.25;100814.50;4893036;28;98905;-68
2023/02/20 09:33:55;;;;;;;;;;;;;;;17.00;44.30;100816.00;4910416;28;126939;-68
2023/02/20 09:36:21;;;;;;;;;;;;;;;16.91;44.33;100819.44;4906965;28;117615;-69
2023/02/20 09:38:47;;;;;;;;;;;;;;;16.87;44.45;100809.44;4929970;28;127490;-68
2023/02/20 09:41:24;;;;;;;;;;;;;;;16.87;44.45;100809.44;4899442;28;120118;-68
2023/02/20 09:44:09;;;;;;;;;;;;;;;16.85;44.32;100815.19;4913447;28;114497;-68
2023/02/20 09:46:35;;;;;;;;;;;;;;;16.84;44.23;100810.84;4913510;28;110884;-68
2023/02/20 09:49:11;;;;;;;;;;;;;;;16.83;44.30;100798.34;4913334;28;121926;-68
2023/02/20 09:51:39;;;;;;;;;;;;;;;16.86;44.26;100796.94;4929477;28;100122;-68
2023/02/20 09:54:07;;;;;;;;;;;;;;;16.87;43.98;100791.19;4882532;28;104810;-68
2023/02/20 09:56:45;;;;;;;;;;;;;;;16.90;44.16;100793.31;4899514;28;98027;-67
2023/02/20 09:59:45;;;;;;;;;;;;;;;16.95;44.12;100778.00;4914918;28;98111;-67
2023/02/20 10:02:13;;;;;;;;;;;;;;;16.98;44.12;100770.03;4931278;28;98465;-67
2023/02/20 10:04:44;;;;;;;;;;;;;;;17.00;44.02;100759.63;4914100;28;115897;-67
2023/02/20 10:07:27;;;;;;;;;;;;;;;17.01;44.01;100769.41;4898525;28;105202;-68
2023/02/20 10:09:53;;;;;;;;;;;;;;;17.02;43.97;100776.47;4915203;28;103323;-67
2023/02/20 10:12:32;;;;;;;;;;;;;;;17.02;43.95;100771.03;4912913;28;111108;-68
2023/02/20 10:15:24;;;;;;;;;;;;;;;17.04;43.94;100768.81;4908057;28;122130;-67
2023/02/20 10:18:18;;;;;;;;;;;;;;;17.12;43.90;100762.66;4930813;28;98774;-68
2023/02/20 10:20:56;;;;;;;;;;;;;;;17.20;43.86;100763.03;4912653;28;98550;-67
2023/02/20 10:23:35;;;;;;;;;;;;;;;17.23;43.69;100744.19;4911458;28;97984;-67
2023/02/20 10:26:07;;;;;;;;;;;;;;;17.33;43.69;100740.41;4931156;28;99368;-67
2023/02/20 10:28:33;;;;;;;;;;;;;;;17.43;43.61;100748.38;4898308;28;98005;-67
2023/02/20 10:31:08;;;;;;;;;;;;;;;17.56;43.56;100741.28;4894153;28;128304;-67
2023/02/20 10:33:45;;;;;;;;;;;;;;;17.74;43.31;100734.88;4913906;28;106975;-67
2023/02/20 10:36:32;;;;;;;;;;;;;;;18.03;43.17;100726.28;4895376;28;98361;-68
2023/02/20 10:39:06;;;;;;;;;;;;;;;18.40;42.89;100719.59;4914026;28;98661;-68
2023/02/20 10:41:36;;;;;;;;;;;;;;;18.82;42.52;100711.09;4914873;28;98287;-68
2023/02/20 10:44:05;;;;;;;;;;;;;;;19.85;41.48;100695.97;4930849;28;99471;-68
2023/02/20 10:46:45;;;;;;;;;;;;;;;20.90;40.68;100689.00;4930711;28;98297;-68
2023/02/20 10:49:15;;;;;;;;;;;;;;;20.62;41.47;100664.03;4927272;28;98039;-68
2023/02/20 10:51:43;;;;;;;;;;;;;;;20.39;41.88;100679.88;4911358;28;98354;-68
2023/02/20 10:54:21;;;;;;;;;;;;;;;20.29;42.07;100658.38;4898471;28;98012;-68
2023/02/20 10:57:06;;;;;;;;;;;;;;;20.26;42.32;100640.66;5013241;27;98091;-67
2023/02/20 10:59:36;;;;;;;;;;;;;;;20.24;42.33;100642.94;5008693;27;99568;-67
2023/02/20 11:02:04;;;;;;;;;;;;;;;20.07;42.32;100629.28;4992935;27;99352;-67
2023/02/20 11:04:35;;;;;;;;;;;;;;;19.93;42.68;100629.50;5012215;27;99901;-67
2023/02/20 11:07:09;;;;;;;;;;;;;;;19.83;42.79;100625.19;4994937;27;99882;-68
2023/02/20 11:09:35;;;;;;;;;;;;;;;19.84;42.85;100615.03;4981188;27;100547;-67
2023/02/20 11:12:01;;;;;;;;;;;;;;;19.85;42.76;100617.47;4987223;27;107859;-68
2023/02/20 11:14:26;;;;;;;;;;;;;;;19.88;42.75;100621.47;4980686;27;98081;-68
2023/02/20 11:17:05;;;;;;;;;;;;;;;19.84;42.80;100610.38;5011563;27;101734;-67
2023/02/20 11:19:45;;;;;;;;;;;;;;;19.85;42.87;100613.94;4979324;27;98179;-68
2023/02/20 11:22:11;;;;;;;;;;;;;;;19.97;42.78;100618.72;4979058;27;116093;-67
2023/02/20 11:24:38;;;;;;;;;;;;;;;20.11;42.50;100613.84;4979467;27;123791;-67
2023/02/20 11:27:05;;;;;;;;;;;;;;;20.23;42.51;100607.66;4989979;27;98086;-68
2023/02/20 11:29:34;;;;;;;;;;;;;;;20.33;42.56;100607.31;4992827;27;98458;-68
2023/02/20 11:32:21;;;;;;;;;;;;;;;20.48;42.20;100595.81;4994470;27;99324;-68
2023/02/20 11:34:47;;;;;;;;;;;;;;;20.83;42.04;100585.47;4997140;27;98328;-68
2023/02/20 11:37:13;;;;;;;;;;;;;;;21.42;41.48;100591.91;4973499;27;98008;-68
2023/02/20 11:39:44;;;;;;;;;;;;;;;21.74;41.34;100582.09;4980065;27;98425;-68
2023/02/20 11:42:17;;;;;;;;;;;;;;;21.86;41.43;100584.06;4980837;27;99984;-68
2023/02/20 11:44:43;;;;;;;;;;;;;;;22.02;41.36;100569.31;4979707;27;99653;-68
2023/02/20 11:47:37;;;;;;;;;;;;;;;22.09;41.46;100563.28;4990666;27;127214;-68
2023/02/20 11:50:13;;;;;;;;;;;;;;;21.99;41.63;100545.31;4993176;27;98012;-68
2023/02/20 11:52:54;;;;;;;;;;;;;;;21.77;42.03;100554.78;4996465;27;100146;-68
2023/02/20 11:55:22;;;;;;;;;;;;;;;21.66;42.39;100556.34;4988846;27;119743;-68
2023/02/20 11:57:48;;;;;;;;;;;;;;;21.62;42.24;100547.22;4995921;27;99258;-68
2023/02/20 12:00:16;;;;;;;;;;;;;;;21.61;42.53;100550.28;4989118;27;98062;-69
2023/02/20 12:03:06;;;;;;;;;;;;;;;21.50;42.52;100544.44;5012052;27;98145;-68
2023/02/20 12:05:41;;;;;;;;;;;;;;;21.42;42.65;100528.84;4996381;27;97976;-69
2023/02/20 12:08:44;;;;;;;;;;;;;;;21.33;42.74;100518.00;4977413;27;100319;-68
2023/02/20 12:11:28;;;;;;;;;;;;;;;21.26;42.80;100526.75;4996561;27;98577;-69
2023/02/20 12:13:56;;;;;;;;;;;;;;;21.12;42.99;100512.53;4982321;27;98561;-68
2023/02/20 12:16:40;;;;;;;;;;;;;;;21.14;42.89;100506.69;4978998;27;98215;-68
2023/02/20 12:19:20;;;;;;;;;;;;;;;21.13;42.90;100505.09;4977161;27;99204;-68
2023/02/20 12:22:13;;;;;;;;;;;;;;;21.13;42.87;100502.38;4973037;27;98261;-68
2023/02/20 12:24:58;;;;;;;;;;;;;;;21.12;42.82;100507.06;4985532;27;98512;-69
2023/02/20 12:27:37;;;;;;;;;;;;;;;21.09;42.87;100494.81;4976343;27;98353;-68
2023/02/20 12:30:12;;;;;;;;;;;;;;;21.08;42.86;100487.75;4982550;27;98091;-67
2023/02/20 12:32:54;;;;;;;;;;;;;;;21.10;42.92;100490.13;4983249;27;99742;-68
2023/02/20 12:35:24;;;;;;;;;;;;;;;21.09;42.84;100480.31;4994195;27;99692;-68
2023/02/20 12:38:01;;;;;;;;;;;;;;;21.09;42.94;100472.09;5000680;27;98059;-68
2023/02/20 12:40:38;;;;;;;;;;;;;;;21.12;42.99;100495.28;4979424;27;98153;-68
2023/02/20 12:43:07;;;;;;;;;;;;;;;21.24;42.80;100478.88;4981015;27;98264;-68
2023/02/20 12:45:40;;;;;;;;;;;;;;;21.41;42.50;100488.88;4994324;27;120500;-68
2023/02/20 12:48:15;;;;;;;;;;;;;;;21.22;42.96;100490.19;4979716;27;99973;-69
2023/02/20 12:51:08;;;;;;;;;;;;;;;21.11;43.00;100488.22;5013462;27;97945;-68
2023/02/20 12:53:43;;;;;;;;;;;;;;;20.91;43.31;100490.66;4964530;27;98813;-68
2023/02/20 12:56:47;;;;;;;;;;;;;;;20.68;43.45;100490.19;4992255;27;99832;-68
2023/02/20 12:59:35;;;;;;;;;;;;;;;20.46;43.59;100480.34;4993093;27;98453;-68
2023/02/20 13:02:16;;;;;;;;;;;;;;;20.33;43.81;100476.72;4980019;27;99199;-68